Time;durP1;ratioP1;P1;durP2;ratioP2;P2;SDS_P1;SDS_P2;PMS_P1;PMS_P2;Temp;Humidity;BMP_temperature;BMP_pressure;BME280_temperature;BME280_humidity;BME280_pressure;Samples;Min_cycle;Max_cycle;Signal;HPM_P1;HPM_P2
2023/12/30 00:02:07;;;;;;;31.00;15.57;;;;;;;;;;10339445;28;20336;-79
2023/12/30 00:07:07;;;;;;;25.63;13.82;;;;;;;;;;10339056;28;20026;-78
2023/12/30 00:12:09;;;;;;;20.35;13.20;;;;;;;;;;10334483;28;20403;-79
2023/12/30 00:17:09;;;;;;;24.60;14.88;;;;;;;;;;10338242;28;20216;-80
2023/12/30 00:22:09;;;;;;;26.95;12.85;;;;;;;;;;10338834;28;20030;-79
2023/12/30 00:27:09;;;;;;;22.50;11.85;;;;;;;;;;10337144;28;20018;-78
2023/12/30 00:32:10;;;;;;;24.95;14.20;;;;;;;;;;10338513;28;20026;-80
2023/12/30 00:37:13;;;;;;;32.35;15.40;;;;;;;;;;10320526;28;20022;-80
2023/12/30 00:42:13;;;;;;;26.02;14.88;;;;;;;;;;10338337;28;20291;-79
2023/12/30 00:47:14;;;;;;;29.73;14.18;;;;;;;;;;10337161;28;20026;-80
2023/12/30 00:52:14;;;;;;;29.45;15.65;;;;;;;;;;10336935;28;20316;-80
2023/12/30 00:57:14;;;;;;;22.88;12.88;;;;;;;;;;10335581;28;20384;-80
2023/12/30 01:02:14;;;;;;;21.80;13.18;;;;;;;;;;10336871;28;20029;-80
2023/12/30 01:07:14;;;;;;;27.63;13.57;;;;;;;;;;10336775;28;20026;-78
2023/12/30 01:12:15;;;;;;;28.88;13.88;;;;;;;;;;10336851;28;20330;-80
2023/12/30 01:17:15;;;;;;;23.35;12.82;;;;;;;;;;10335148;28;20206;-79
2023/12/30 01:22:15;;;;;;;22.17;12.60;;;;;;;;;;10339819;28;20030;-80
2023/12/30 01:27:15;;;;;;;22.83;14.32;;;;;;;;;;10338351;28;20401;-81
2023/12/30 01:32:16;;;;;;;24.35;14.30;;;;;;;;;;10335178;28;20081;-79
2023/12/30 01:37:16;;;;;;;26.83;14.52;;;;;;;;;;10335377;28;20316;-78
2023/12/30 01:42:16;;;;;;;30.48;13.57;;;;;;;;;;10335410;28;20095;-78
2023/12/30 01:47:17;;;;;;;30.45;14.20;;;;;;;;;;10317039;28;20023;-78
2023/12/30 01:52:17;;;;;;;25.55;13.55;;;;;;;;;;10333057;28;20095;-79
2023/12/30 01:57:18;;;;;;;27.25;14.75;;;;;;;;;;10334941;28;20149;-79
2023/12/30 02:02:18;;;;;;;23.83;14.40;;;;;;;;;;10308902;28;20043;-79
2023/12/30 02:07:18;;;;;;;29.30;13.70;;;;;;;;;;10317679;28;20030;-79
2023/12/30 02:12:19;;;;;;;23.83;12.93;;;;;;;;;;10318001;28;20207;-79
2023/12/30 02:17:19;;;;;;;22.90;12.90;;;;;;;;;;10317169;28;20226;-80
2023/12/30 02:22:19;;;;;;;28.30;14.15;;;;;;;;;;10334319;28;20125;-79
2023/12/30 02:27:19;;;;;;;22.40;13.15;;;;;;;;;;10320427;28;20064;-79
2023/12/30 02:32:19;;;;;;;22.88;12.45;;;;;;;;;;10334372;28;20189;-79
2023/12/30 02:37:20;;;;;;;29.67;14.63;;;;;;;;;;10320675;28;20359;-80
2023/12/30 02:42:20;;;;;;;24.38;13.48;;;;;;;;;;10332541;28;20240;-80
2023/12/30 02:47:20;;;;;;;19.63;11.02;;;;;;;;;;10334106;28;20040;-79
2023/12/30 02:52:22;;;;;;;18.67;10.35;;;;;;;;;;10334481;28;20132;-79
2023/12/30 02:57:23;;;;;;;25.95;10.98;;;;;;;;;;10334680;28;20030;-79
2023/12/30 03:02:23;;;;;;;18.33;8.93;;;;;;;;;;10303090;28;20216;-80
2023/12/30 03:07:24;;;;;;;19.50;11.57;;;;;;;;;;10341081;28;20046;-80
2023/12/30 03:12:24;;;;;;;14.32;7.28;;;;;;;;;;10341274;28;20725;-78
2023/12/30 03:17:24;;;;;;;23.50;12.70;;;;;;;;;;10327770;28;20316;-78
2023/12/30 03:22:26;;;;;;;21.38;12.20;;;;;;;;;;10340987;28;20037;-78
2023/12/30 03:27:26;;;;;;;26.67;13.07;;;;;;;;;;10324054;28;20034;-79
2023/12/30 03:32:27;;;;;;;20.90;11.98;;;;;;;;;;10341010;28;20090;-79
2023/12/30 03:37:27;;;;;;;27.17;13.35;;;;;;;;;;10340858;28;20022;-79
2023/12/30 03:42:28;;;;;;;22.00;14.02;;;;;;;;;;10340132;28;20305;-78
2023/12/30 03:47:28;;;;;;;21.00;12.27;;;;;;;;;;10339838;28;20014;-79
2023/12/30 03:52:29;;;;;;;23.00;9.50;;;;;;;;;;10322788;28;20021;-79
2023/12/30 03:57:29;;;;;;;22.60;10.68;;;;;;;;;;10339602;28;20026;-79
2023/12/30 04:02:29;;;;;;;22.77;11.68;;;;;;;;;;10322017;28;20101;-79
2023/12/30 04:07:29;;;;;;;20.35;12.05;;;;;;;;;;10341441;28;20326;-79
2023/12/30 04:12:31;;;;;;;19.67;12.50;;;;;;;;;;10338620;28;20022;-78
2023/12/30 04:17:31;;;;;;;19.88;11.10;;;;;;;;;;10323795;28;20018;-80
2023/12/30 04:22:31;;;;;;;16.60;10.65;;;;;;;;;;10324303;28;20030;-79
2023/12/30 04:27:34;;;;;;;19.53;10.67;;;;;;;;;;10339313;28;20018;-79
2023/12/30 04:32:34;;;;;;;23.40;13.15;;;;;;;;;;10338115;28;20319;-79
2023/12/30 04:37:35;;;;;;;26.48;14.85;;;;;;;;;;10338119;28;20018;-78
2023/12/30 04:42:35;;;;;;;24.65;14.65;;;;;;;;;;10340158;28;20094;-78
2023/12/30 04:47:35;;;;;;;29.83;14.95;;;;;;;;;;10339241;28;20026;-78
2023/12/30 04:52:36;;;;;;;24.92;13.60;;;;;;;;;;10338684;28;20263;-78
2023/12/30 04:57:36;;;;;;;29.80;14.80;;;;;;;;;;10336570;28;20243;-77
2023/12/30 05:02:36;;;;;;;22.08;12.77;;;;;;;;;;10338358;28;20185;-79
2023/12/30 05:07:36;;;;;;;20.20;11.70;;;;;;;;;;10342635;28;20190;-79
2023/12/30 05:12:37;;;;;;;25.42;12.13;;;;;;;;;;10333497;28;20018;-79
2023/12/30 05:17:37;;;;;;;16.25;11.95;;;;;;;;;;10337234;28;20287;-77
2023/12/30 05:22:41;;;;;;;24.42;12.70;;;;;;;;;;10336814;28;20026;-78
2023/12/30 05:27:41;;;;;;;19.80;11.98;;;;;;;;;;10336797;28;20042;-79
2023/12/30 05:32:41;;;;;;;20.83;13.80;;;;;;;;;;10326816;28;20018;-77
2023/12/30 05:37:41;;;;;;;25.00;15.82;;;;;;;;;;10334264;28;20248;-78
2023/12/30 05:42:43;;;;;;;22.13;12.52;;;;;;;;;;10334098;28;20022;-80
2023/12/30 05:47:43;;;;;;;30.30;15.38;;;;;;;;;;10332911;28;20030;-77
2023/12/30 05:52:44;;;;;;;28.60;14.20;;;;;;;;;;10332076;28;20018;-78
2023/12/30 05:57:45;;;;;;;29.75;14.20;;;;;;;;;;10335036;28;20038;-77
2023/12/30 06:02:48;;;;;;;25.30;15.98;;;;;;;;;;10334847;28;20025;-79
2023/12/30 06:07:48;;;;;;;34.38;17.45;;;;;;;;;;10310176;28;20069;-83
2023/12/30 06:12:48;;;;;;;34.30;20.47;;;;;;;;;;10291588;28;20065;-77
2023/12/30 06:17:49;;;;;;;31.08;17.52;;;;;;;;;;10300019;28;20050;-80
2023/12/30 06:22:49;;;;;;;30.30;19.00;;;;;;;;;;10300874;28;20037;-77
2023/12/30 06:27:49;;;;;;;39.20;17.73;;;;;;;;;;10294856;28;20163;-78
2023/12/30 06:32:49;;;;;;;39.65;18.10;;;;;;;;;;10306335;28;20029;-78
2023/12/30 06:37:49;;;;;;;38.95;21.00;;;;;;;;;;10296008;28;20338;-76
2023/12/30 06:42:50;;;;;;;38.90;20.70;;;;;;;;;;10314716;28;20042;-78
2023/12/30 06:47:50;;;;;;;46.63;22.17;;;;;;;;;;10313045;28;20325;-77
2023/12/30 06:52:50;;;;;;;48.22;27.35;;;;;;;;;;10310690;28;20324;-78
2023/12/30 06:57:50;;;;;;;22.93;13.50;;;;;;;;;;10291858;28;20211;-76
2023/12/30 07:02:51;;;;;;;23.17;13.82;;;;;;;;;;10302400;28;20277;-76
2023/12/30 07:07:51;;;;;;;27.47;12.83;;;;;;;;;;10314772;28;20129;-77
2023/12/30 07:12:51;;;;;;;25.27;12.77;;;;;;;;;;10305669;28;20017;-76
2023/12/30 07:17:51;;;;;;;23.05;13.25;;;;;;;;;;10298150;28;20482;-76
2023/12/30 07:22:52;;;;;;;30.25;16.30;;;;;;;;;;10311156;28;20378;-74
2023/12/30 07:27:52;;;;;;;45.75;26.45;;;;;;;;;;10312826;28;20037;-77
2023/12/30 07:32:53;;;;;;;61.75;31.80;;;;;;;;;;10315664;28;20316;-76
2023/12/30 07:37:53;;;;;;;77.28;37.10;;;;;;;;;;10310133;28;20212;-74
2023/12/30 07:42:54;;;;;;;70.10;34.73;;;;;;;;;;10307682;28;20014;-77
2023/12/30 07:47:54;;;;;;;73.38;33.20;;;;;;;;;;10301540;28;20276;-78
2023/12/30 07:52:54;;;;;;;66.88;34.13;;;;;;;;;;10295236;28;20030;-79
2023/12/30 07:57:54;;;;;;;63.50;34.38;;;;;;;;;;10291158;28;20046;-80
2023/12/30 08:02:55;;;;;;;61.25;34.50;;;;;;;;;;10308090;28;20120;-77
2023/12/30 08:07:55;;;;;;;69.85;35.85;;;;;;;;;;10306000;28;20293;-77
2023/12/30 08:12:55;;;;;;;69.88;35.35;;;;;;;;;;10293587;28;20168;-75
2023/12/30 08:17:56;;;;;;;63.47;35.05;;;;;;;;;;10311246;28;20030;-78
2023/12/30 08:22:56;;;;;;;62.20;36.88;;;;;;;;;;10294111;28;20011;-77
2023/12/30 08:27:56;;;;;;;76.25;40.75;;;;;;;;;;10301508;28;20342;-78
2023/12/30 08:33:03;;;;;;;79.33;37.50;;;;;;;;;;10314964;28;20026;-78
2023/12/30 08:38:03;;;;;;;78.20;39.22;;;;;;;;;;10306165;28;20331;-77
2023/12/30 08:43:04;;;;;;;70.93;36.53;;;;;;;;;;10303985;28;20022;-79
2023/12/30 08:48:04;;;;;;;74.93;40.00;;;;;;;;;;10290690;28;20022;-79
2023/12/30 08:53:04;;;;;;;66.28;34.83;;;;;;;;;;10303886;28;20010;-79
2023/12/30 08:58:04;;;;;;;78.13;38.38;;;;;;;;;;10309950;28;20046;-77
2023/12/30 09:03:05;;;;;;;66.60;35.00;;;;;;;;;;10303142;28;20402;-78
2023/12/30 09:08:06;;;;;;;66.45;35.72;;;;;;;;;;10305103;28;20047;-79
2023/12/30 09:13:06;;;;;;;54.07;32.27;;;;;;;;;;10300024;28;20026;-78
2023/12/30 09:18:07;;;;;;;51.60;30.25;;;;;;;;;;10293160;28;20805;-79
2023/12/30 09:23:07;;;;;;;61.85;28.95;;;;;;;;;;10293699;28;20026;-79
2023/12/30 09:28:07;;;;;;;59.88;28.25;;;;;;;;;;10301847;28;20027;-79
2023/12/30 09:33:07;;;;;;;52.75;28.85;;;;;;;;;;10308195;28;20034;-78
2023/12/30 09:38:07;;;;;;;50.05;28.05;;;;;;;;;;10296195;28;20025;-78
2023/12/30 09:43:08;;;;;;;59.13;30.90;;;;;;;;;;10307173;28;20022;-78
2023/12/30 09:48:10;;;;;;;52.65;28.38;;;;;;;;;;10291487;28;20278;-79
2023/12/30 09:53:10;;;;;;;56.80;28.60;;;;;;;;;;10306230;28;20309;-78
2023/12/30 09:58:11;;;;;;;52.42;27.05;;;;;;;;;;10284619;28;20247;-79
2023/12/30 10:03:11;;;;;;;45.17;24.60;;;;;;;;;;10301482;28;20030;-78
2023/12/30 10:08:12;;;;;;;46.75;23.55;;;;;;;;;;10286424;28;20335;-78
2023/12/30 10:13:13;;;;;;;41.58;21.55;;;;;;;;;;10305083;28;20030;-79
2023/12/30 10:18:15;;;;;;;36.15;21.38;;;;;;;;;;10307643;28;20022;-79
2023/12/30 10:23:15;;;;;;;535.45;479.27;;;;;;;;;;10307794;28;20236;-79
2023/12/30 10:28:16;;;;;;;84.55;76.07;;;;;;;;;;10277631;28;20137;-77
2023/12/30 10:33:17;;;;;;;115.28;105.78;;;;;;;;;;10299618;28;20022;-79
2023/12/30 10:38:17;;;;;;;199.02;183.45;;;;;;;;;;10311906;28;20023;-77
2023/12/30 10:43:19;;;;;;;30.17;19.35;;;;;;;;;;10303769;28;20371;-78
2023/12/30 10:48:20;;;;;;;151.52;138.68;;;;;;;;;;10290736;28;20027;-78
2023/12/30 10:53:25;;;;;;;48.28;32.78;;;;;;;;;;10300152;28;20027;-79
2023/12/30 10:58:25;;;;;;;57.75;43.47;;;;;;;;;;10303995;28;20058;-78
2023/12/30 11:03:26;;;;;;;48.78;28.52;;;;;;;;;;10296122;28;20278;-78
2023/12/30 11:08:26;;;;;;;99.65;90.20;;;;;;;;;;10305639;28;20234;-78
2023/12/30 11:13:33;;;;;;;174.00;160.50;;;;;;;;;;10301240;28;20349;-78
2023/12/30 11:18:49;;;;;;;112.00;102.40;;;;;;;;;;10287005;28;20618;-78
2023/12/30 11:23:58;;;;;;;264.88;245.63;;;;;;;;;;10284107;28;20026;-78
2023/12/30 11:28:59;;;;;;;128.65;118.55;;;;;;;;;;10297845;28;20037;-78
2023/12/30 11:34:00;;;;;;;658.60;607.53;;;;;;;;;;10313288;28;20026;-77
2023/12/30 11:39:01;;;;;;;82.15;73.65;;;;;;;;;;10293175;28;20046;-79
2023/12/30 11:44:02;;;;;;;103.37;94.43;;;;;;;;;;10314643;28;20035;-78
2023/12/30 11:49:02;;;;;;;209.70;192.93;;;;;;;;;;10309531;28;20222;-79
2023/12/30 11:54:03;;;;;;;183.68;168.13;;;;;;;;;;10306447;28;20085;-79
2023/12/30 11:59:06;;;;;;;246.70;227.13;;;;;;;;;;10310715;28;20043;-79
2023/12/30 12:04:08;;;;;;;523.15;482.20;;;;;;;;;;10307617;28;20109;-78
2023/12/30 12:09:08;;;;;;;400.30;370.08;;;;;;;;;;10307906;28;20283;-77
2023/12/30 12:14:10;;;;;;;1079.10;977.22;;;;;;;;;;10307893;28;20034;-77
2023/12/30 12:19:10;;;;;;;1021.72;942.20;;;;;;;;;;10302290;28;20109;-78
2023/12/30 12:24:10;;;;;;;961.67;884.28;;;;;;;;;;10308909;28;20037;-79
2023/12/30 12:29:12;;;;;;;601.05;555.97;;;;;;;;;;10305840;28;20042;-80
2023/12/30 12:34:23;;;;;;;279.65;260.58;;;;;;;;;;10306886;28;20052;-79
2023/12/30 12:39:24;;;;;;;323.23;301.33;;;;;;;;;;10302654;28;20022;-79
2023/12/30 12:44:24;;;;;;;129.38;118.15;;;;;;;;;;10312118;28;20015;-78
2023/12/30 12:49:24;;;;;;;197.52;182.57;;;;;;;;;;10309214;28;20327;-78
2023/12/30 12:54:25;;;;;;;732.55;677.47;;;;;;;;;;10298135;28;20326;-77
2023/12/30 12:59:25;;;;;;;717.88;664.85;;;;;;;;;;10307113;28;20110;-81
2023/12/30 13:04:25;;;;;;;159.65;148.18;;;;;;;;;;10292256;28;20055;-80
2023/12/30 13:09:36;;;;;;;54.50;36.05;;;;;;;;;;10307335;28;20295;-78
2023/12/30 13:14:36;;;;;;;122.07;107.63;;;;;;;;;;10299850;28;20029;-79
2023/12/30 13:19:36;;;;;;;47.17;26.63;;;;;;;;;;10293365;28;20201;-81
2023/12/30 13:24:40;;;;;;;41.20;20.45;;;;;;;;;;10289513;28;20225;-81
2023/12/30 13:29:41;;;;;;;41.92;17.88;;;;;;;;;;10304605;28;20201;-82
2023/12/30 13:34:43;;;;;;;16.63;7.65;;;;;;;;;;10295280;28;20033;-78
2023/12/30 13:39:43;;;;;;;13.07;6.18;;;;;;;;;;10309887;28;20400;-82
2023/12/30 13:44:45;;;;;;;12.60;5.93;;;;;;;;;;10307110;28;20092;-80
2023/12/30 13:55:06;;;;;;;11.77;5.15;;;;;;;;;;10311429;28;20014;-79
2023/12/30 14:00:07;;;;;;;239.60;226.07;;;;;;;;;;10288597;28;20093;-81
2023/12/30 14:05:18;;;;;;;16.75;6.75;;;;;;;;;;10301050;28;20369;-82
2023/12/30 14:10:18;;;;;;;43.40;39.83;;;;;;;;;;10302030;28;20033;-80
2023/12/30 14:15:18;;;;;;;69.17;64.57;;;;;;;;;;10303629;28;20343;-78
2023/12/30 14:20:18;;;;;;;60.20;56.13;;;;;;;;;;10294283;28;20316;-79
2023/12/30 14:25:19;;;;;;;126.55;119.28;;;;;;;;;;10310857;28;20026;-79
2023/12/30 14:30:20;;;;;;;534.08;499.67;;;;;;;;;;10289059;28;20434;-78
2023/12/30 14:35:21;;;;;;;700.28;645.28;;;;;;;;;;10288246;28;20042;-78
2023/12/30 14:40:22;;;;;;;109.38;102.70;;;;;;;;;;10286745;28;20027;-79
2023/12/30 14:45:22;;;;;;;133.57;124.47;;;;;;;;;;10294921;28;20097;-79
2023/12/30 14:50:23;;;;;;;66.72;62.40;;;;;;;;;;10293431;28;20033;-79
2023/12/30 14:55:23;;;;;;;419.10;392.55;;;;;;;;;;10307262;28;20085;-80
2023/12/30 15:00:24;;;;;;;47.70;43.72;;;;;;;;;;10306435;28;20363;-78
2023/12/30 15:05:24;;;;;;;325.13;305.40;;;;;;;;;;10318328;28;20088;-77
2023/12/30 15:10:24;;;;;;;60.63;56.03;;;;;;;;;;10301745;28;20089;-79
2023/12/30 15:15:25;;;;;;;22.35;14.90;;;;;;;;;;10308257;28;20268;-78
2023/12/30 15:20:26;;;;;;;18.52;8.52;;;;;;;;;;10314982;28;20371;-77
2023/12/30 15:25:26;;;;;;;181.88;169.88;;;;;;;;;;10303964;28;20057;-78
2023/12/30 15:30:26;;;;;;;91.75;85.30;;;;;;;;;;10310675;28;20026;-79
2023/12/30 15:35:26;;;;;;;477.67;448.15;;;;;;;;;;10319030;28;20044;-79
2023/12/30 15:40:27;;;;;;;261.75;246.95;;;;;;;;;;10317378;28;20034;-77
2023/12/30 15:45:27;;;;;;;383.58;360.60;;;;;;;;;;10298238;28;20339;-78
2023/12/30 15:50:29;;;;;;;20.90;8.93;;;;;;;;;;10306048;28;20041;-85
2023/12/30 15:55:29;;;;;;;93.25;86.93;;;;;;;;;;10301613;28;20110;-82
2023/12/30 16:00:29;;;;;;;62.65;58.28;;;;;;;;;;10317211;28;20051;-85
2023/12/30 16:05:29;;;;;;;120.80;113.00;;;;;;;;;;10322776;28;20089;-86
2023/12/30 16:10:31;;;;;;;115.85;108.32;;;;;;;;;;10291933;28;20038;-87
2023/12/30 16:15:31;;;;;;;65.00;60.28;;;;;;;;;;10295393;28;20010;-82
2023/12/30 16:20:31;;;;;;;28.35;23.65;;;;;;;;;;10306285;28;20212;-82
2023/12/30 16:25:32;;;;;;;17.08;9.63;;;;;;;;;;10314299;28;20046;-82
2023/12/30 16:30:32;;;;;;;19.98;9.82;;;;;;;;;;10308411;28;20026;-83
2023/12/30 16:35:32;;;;;;;17.60;9.30;;;;;;;;;;10309508;28;20028;-83
2023/12/30 16:40:32;;;;;;;29.10;9.77;;;;;;;;;;10308968;28;20030;-83
2023/12/30 16:45:33;;;;;;;23.20;10.05;;;;;;;;;;10297073;28;20070;-82
2023/12/30 16:50:33;;;;;;;26.57;10.60;;;;;;;;;;10305504;28;20030;-84
2023/12/30 16:55:33;;;;;;;21.02;10.73;;;;;;;;;;10292443;28;20019;-84
2023/12/30 17:00:33;;;;;;;36.78;33.63;;;;;;;;;;10310220;28;20042;-81
2023/12/30 17:05:34;;;;;;;109.35;102.22;;;;;;;;;;10308348;28;20208;-81
2023/12/30 17:10:34;;;;;;;33.05;28.50;;;;;;;;;;10305628;28;20019;-82
2023/12/30 17:15:34;;;;;;;142.53;134.00;;;;;;;;;;10308638;28;20086;-82
2023/12/30 17:20:34;;;;;;;136.33;127.57;;;;;;;;;;10287987;28;20014;-79
2023/12/30 17:25:35;;;;;;;96.13;90.32;;;;;;;;;;10316438;28;20328;-81
2023/12/30 17:30:35;;;;;;;173.07;161.48;;;;;;;;;;10304590;28;20312;-79
2023/12/30 17:35:35;;;;;;;27.15;13.02;;;;;;;;;;10313754;28;20014;-79
2023/12/30 17:40:35;;;;;;;37.42;10.88;;;;;;;;;;10306184;28;20026;-81
2023/12/30 17:45:37;;;;;;;25.23;15.30;;;;;;;;;;10312067;28;20026;-84
2023/12/30 17:50:37;;;;;;;23.95;10.77;;;;;;;;;;10306558;28;20031;-84
2023/12/30 17:55:37;;;;;;;25.25;11.52;;;;;;;;;;10315664;28;20086;-85
2023/12/30 18:00:37;;;;;;;21.50;11.52;;;;;;;;;;10290597;28;20050;-81
2023/12/30 18:05:38;;;;;;;20.73;11.75;;;;;;;;;;10306344;28;20201;-83
2023/12/30 18:10:38;;;;;;;31.60;12.37;;;;;;;;;;10312896;28;20065;-82
2023/12/30 18:15:38;;;;;;;30.10;13.45;;;;;;;;;;10315523;28;20014;-82
2023/12/30 18:20:39;;;;;;;44.20;14.63;;;;;;;;;;10308973;28;20044;-82
2023/12/30 18:25:39;;;;;;;33.28;13.73;;;;;;;;;;10306535;28;20018;-82
2023/12/30 18:30:41;;;;;;;41.03;28.57;;;;;;;;;;10304354;28;20232;-83
2023/12/30 18:35:42;;;;;;;41.90;17.35;;;;;;;;;;10292867;28;20353;-82
2023/12/30 18:40:44;;;;;;;31.08;19.67;;;;;;;;;;10322976;28;20060;-82
2023/12/30 18:45:45;;;;;;;139.27;130.18;;;;;;;;;;10333152;28;20216;-82
2023/12/30 18:50:45;;;;;;;163.00;151.80;;;;;;;;;;10321894;28;20040;-81
2023/12/30 18:55:45;;;;;;;35.25;17.58;;;;;;;;;;10308108;28;20189;-77
2023/12/30 19:00:45;;;;;;;40.22;18.02;;;;;;;;;;10320474;28;20453;-79
2023/12/30 19:05:46;;;;;;;54.08;45.13;;;;;;;;;;10315411;28;20098;-78
2023/12/30 19:10:47;;;;;;;33.10;18.10;;;;;;;;;;10311188;28;20368;-80
2023/12/30 19:15:47;;;;;;;36.43;17.47;;;;;;;;;;10294032;28;20209;-78
2023/12/30 19:20:47;;;;;;;39.95;20.35;;;;;;;;;;10313137;28;20343;-78
2023/12/30 19:25:47;;;;;;;32.17;17.48;;;;;;;;;;10297719;28;20027;-77
2023/12/30 19:30:48;;;;;;;31.00;18.35;;;;;;;;;;10313428;28;20032;-81
2023/12/30 19:35:48;;;;;;;42.35;21.98;;;;;;;;;;10311142;28;20026;-78
2023/12/30 19:40:50;;;;;;;32.03;16.75;;;;;;;;;;10308197;28;20259;-81
2023/12/30 19:45:51;;;;;;;39.47;18.98;;;;;;;;;;10318670;28;20049;-87
2023/12/30 19:50:52;;;;;;;37.47;22.52;;;;;;;;;;10311456;28;20029;-82
2023/12/30 19:55:52;;;;;;;139.02;128.93;;;;;;;;;;10304424;28;20018;-86
2023/12/30 20:00:52;;;;;;;45.90;39.85;;;;;;;;;;10256109;28;20276;-86
2023/12/30 20:05:53;;;;;;;42.97;35.35;;;;;;;;;;10279540;28;20060;-81
2023/12/30 20:10:53;;;;;;;56.53;47.08;;;;;;;;;;10255592;28;20340;-78
2023/12/30 20:15:53;;;;;;;37.63;18.30;;;;;;;;;;10271826;28;20296;-80
2023/12/30 20:20:53;;;;;;;38.65;19.55;;;;;;;;;;10267830;28;20155;-82
2023/12/30 20:25:54;;;;;;;37.93;17.27;;;;;;;;;;10271350;28;20057;-81
2023/12/30 20:30:54;;;;;;;33.72;18.55;;;;;;;;;;10264057;28;20027;-78
2023/12/30 20:35:54;;;;;;;37.95;18.13;;;;;;;;;;10273577;28;20015;-78
2023/12/30 20:40:54;;;;;;;33.93;16.47;;;;;;;;;;10262740;28;20038;-86
2023/12/30 20:45:55;;;;;;;41.00;18.73;;;;;;;;;;10254898;28;20277;-85
2023/12/30 20:50:55;;;;;;;47.10;21.45;;;;;;;;;;10275947;28;20225;-78
2023/12/30 20:55:56;;;;;;;44.38;23.45;;;;;;;;;;10267831;28;20182;-79
2023/12/30 21:00:56;;;;;;;47.47;27.20;;;;;;;;;;10309498;28;20047;-78
2023/12/30 21:05:56;;;;;;;39.78;27.63;;;;;;;;;;10310061;28;20042;-79
2023/12/30 21:10:57;;;;;;;37.60;25.90;;;;;;;;;;10308845;28;20015;-82
2023/12/30 21:15:57;;;;;;;319.33;297.35;;;;;;;;;;10306415;28;20015;-80
2023/12/30 21:20:57;;;;;;;58.72;54.00;;;;;;;;;;10311486;28;20022;-80
2023/12/30 21:25:59;;;;;;;98.82;91.72;;;;;;;;;;10299733;28;20049;-80
2023/12/30 21:30:59;;;;;;;199.45;187.23;;;;;;;;;;10297263;28;20208;-79
2023/12/30 21:36:03;;;;;;;534.08;491.90;;;;;;;;;;10311877;28;20053;-79
2023/12/30 21:41:04;;;;;;;594.05;544.97;;;;;;;;;;10311408;28;20018;-77
2023/12/30 21:46:04;;;;;;;583.85;534.15;;;;;;;;;;10285490;28;20026;-78
2023/12/30 21:51:07;;;;;;;507.15;469.77;;;;;;;;;;10287598;28;20253;-77
2023/12/30 21:56:08;;;;;;;507.38;467.25;;;;;;;;;;10312779;28;20015;-77
2023/12/30 22:01:08;;;;;;;480.75;442.42;;;;;;;;;;10287325;28;20022;-78
2023/12/30 22:06:08;;;;;;;542.38;499.73;;;;;;;;;;10308979;28;20036;-78
2023/12/30 22:11:09;;;;;;;362.73;336.33;;;;;;;;;;10290439;28;20038;-81
2023/12/30 22:16:09;;;;;;;508.65;472.67;;;;;;;;;;10310644;28;20891;-79
2023/12/30 22:21:09;;;;;;;188.63;177.48;;;;;;;;;;10306512;28;20855;-77
2023/12/30 22:26:09;;;;;;;259.63;242.90;;;;;;;;;;10308960;28;20026;-79
2023/12/30 22:31:10;;;;;;;455.38;418.60;;;;;;;;;;10317878;28;20340;-78
2023/12/30 22:36:10;;;;;;;586.17;526.03;;;;;;;;;;10313642;28;20117;-78
2023/12/30 22:41:10;;;;;;;578.27;520.77;;;;;;;;;;10292354;28;20019;-82
2023/12/30 22:46:10;;;;;;;573.58;517.55;;;;;;;;;;10311548;28;20336;-82
2023/12/30 22:51:11;;;;;;;584.47;526.58;;;;;;;;;;10301872;28;20336;-78
2023/12/30 22:56:11;;;;;;;558.65;501.55;;;;;;;;;;10304271;28;20031;-85
2023/12/30 23:01:12;;;;;;;572.58;512.33;;;;;;;;;;10263955;28;20046;-82
2023/12/30 23:06:12;;;;;;;538.47;490.10;;;;;;;;;;10267418;28;20015;-83
2023/12/30 23:11:12;;;;;;;520.60;479.70;;;;;;;;;;10270934;28;20031;-82
2023/12/30 23:16:13;;;;;;;480.98;446.60;;;;;;;;;;10254911;28;20010;-80
2023/12/30 23:21:13;;;;;;;492.15;453.40;;;;;;;;;;10273723;28;20082;-80
2023/12/30 23:26:13;;;;;;;549.72;506.15;;;;;;;;;;10269902;28;20309;-79
2023/12/30 23:31:14;;;;;;;558.60;513.58;;;;;;;;;;10273367;28;20217;-79
2023/12/30 23:36:14;;;;;;;559.03;512.22;;;;;;;;;;10271544;28;20054;-80
2023/12/30 23:41:15;;;;;;;620.05;561.70;;;;;;;;;;10270121;28;20421;-81
2023/12/30 23:46:15;;;;;;;637.17;573.50;;;;;;;;;;10270338;28;20232;-81
2023/12/30 23:51:15;;;;;;;589.20;524.00;;;;;;;;;;10272869;28;20372;-83
2023/12/30 23:56:15;;;;;;;600.88;536.88;;;;;;;;;;10279777;28;20025;-81
